Time;durP1;ratioP1;P1;durP2;ratioP2;P2;SDS_P1;SDS_P2;PMS_P1;PMS_P2;Temp;Humidity;BMP_temperature;BMP_pressure;BME280_temperature;BME280_humidity;BME280_pressure;Samples;Min_cycle;Max_cycle;Signal;HPM_P1;HPM_P2
2021/04/08 00:00:24;;;;;;;2.97;2.10;;;4.80;98.30;;;;;;5091086;28;20236;-65
2021/04/08 00:02:51;;;;;;;5.23;2.77;;;4.70;98.50;;;;;;5091334;28;20243;-66
2021/04/08 00:05:18;;;;;;;8.53;3.13;;;4.60;98.70;;;;;;5090771;28;20573;-64
2021/04/08 00:07:44;;;;;;;5.63;2.37;;;4.60;98.90;;;;;;5091115;28;20231;-65
2021/04/08 00:10:12;;;;;;;4.70;2.60;;;4.60;99.20;;;;;;5091494;28;20580;-64
2021/04/08 00:12:38;;;;;;;4.90;2.37;;;4.60;99.60;;;;;;5091308;28;20228;-64
2021/04/08 00:15:06;;;;;;;5.20;2.50;;;4.60;99.90;;;;;;5091633;28;20211;-63
2021/04/08 00:17:32;;;;;;;3.30;2.63;;;4.60;99.90;;;;;;5091652;28;20201;-64
2021/04/08 00:19:59;;;;;;;6.70;2.10;;;4.60;99.90;;;;;;5091185;28;20225;-64
2021/04/08 00:22:25;;;;;;;4.20;2.23;;;4.40;99.90;;;;;;5093703;28;20204;-64
2021/04/08 00:24:52;;;;;;;5.03;2.30;;;4.50;99.90;;;;;;5094703;28;20667;-64
2021/04/08 00:27:18;;;;;;;5.57;2.90;;;4.70;99.90;;;;;;5094517;28;20252;-64
2021/04/08 00:29:44;;;;;;;3.67;2.20;;;4.70;99.90;;;;;;5094756;28;20620;-64
2021/04/08 00:32:10;;;;;;;4.10;2.27;;;4.70;99.90;;;;;;5094813;28;20211;-64
2021/04/08 00:34:36;;;;;;;3.53;2.33;;;4.60;99.90;;;;;;5094456;28;20204;-64
2021/04/08 00:37:04;;;;;;;5.20;3.10;;;4.60;99.90;;;;;;5094674;28;20204;-65
2021/04/08 00:39:30;;;;;;;5.63;2.73;;;4.50;99.90;;;;;;5094227;28;20235;-64
2021/04/08 00:41:57;;;;;;;7.03;2.30;;;4.60;99.90;;;;;;5094269;28;20263;-65
2021/04/08 00:44:23;;;;;;;7.97;2.70;;;4.70;99.90;;;;;;5094435;28;20265;-64
2021/04/08 00:46:49;;;;;;;4.90;3.10;;;4.60;99.90;;;;;;5094285;28;20889;-64
2021/04/08 00:49:15;;;;;;;5.50;2.77;;;4.50;99.90;;;;;;5094448;28;20219;-66
2021/04/08 00:51:41;;;;;;;4.07;2.60;;;4.60;99.90;;;;;;5094284;28;20220;-65
2021/04/08 00:54:09;;;;;;;3.40;2.47;;;4.60;99.90;;;;;;5094028;28;20686;-64
2021/04/08 00:56:35;;;;;;;4.37;2.80;;;4.60;99.90;;;;;;5094340;28;20212;-64
2021/04/08 00:59:02;;;;;;;6.10;2.90;;;4.70;99.90;;;;;;5094383;28;20359;-64
2021/04/08 01:01:29;;;;;;;6.03;3.00;;;4.70;99.90;;;;;;5093715;28;20224;-64
2021/04/08 01:03:56;;;;;;;5.10;2.40;;;4.70;99.90;;;;;;5094252;28;20408;-64
2021/04/08 01:06:22;;;;;;;5.77;2.70;;;4.80;99.90;;;;;;5094111;28;20200;-65
2021/04/08 01:08:48;;;;;;;3.57;2.63;;;4.80;99.90;;;;;;5093355;28;20671;-65
2021/04/08 01:11:15;;;;;;;3.97;2.43;;;4.90;99.90;;;;;;5094065;28;20281;-64
2021/04/08 01:13:43;;;;;;;3.30;2.20;;;5.00;99.90;;;;;;5093968;28;20204;-65
2021/04/08 01:16:14;;;;;;;4.40;2.57;;;5.00;99.90;;;;;;5093886;28;20686;-64
2021/04/08 01:18:49;;;;;;;4.80;2.50;;;5.00;99.90;;;;;;5093630;28;20204;-64
2021/04/08 01:21:21;;;;;;;5.17;2.77;;;5.10;99.90;;;;;;5093642;28;20224;-63
2021/04/08 01:24:14;;;;;;;3.80;2.70;;;5.10;99.90;;;;;;5094117;28;20319;-64
2021/04/08 01:27:18;;;;;;;3.73;2.80;;;5.20;99.90;;;;;;5094161;28;20728;-63
2021/04/08 01:30:01;;;;;;;4.93;2.73;;;5.20;99.90;;;;;;5093559;28;20683;-64
2021/04/08 01:32:31;;;;;;;4.83;2.60;;;5.20;99.90;;;;;;5093582;28;20204;-64
2021/04/08 01:35:00;;;;;;;4.23;2.70;;;5.30;99.90;;;;;;5093030;28;20211;-63
2021/04/08 01:37:29;;;;;;;5.27;3.13;;;5.30;99.90;;;;;;5093659;28;20204;-64
2021/04/08 01:39:57;;;;;;;4.77;2.60;;;5.30;99.90;;;;;;5093562;28;20228;-63
2021/04/08 01:42:25;;;;;;;4.17;2.40;;;5.40;99.90;;;;;;5093750;28;20204;-63
2021/04/08 01:44:52;;;;;;;5.87;3.03;;;5.40;99.80;;;;;;5093851;28;20675;-63
2021/04/08 01:47:19;;;;;;;5.27;3.00;;;5.40;99.90;;;;;;5093421;28;20232;-64
2021/04/08 01:49:48;;;;;;;7.37;2.77;;;5.40;99.90;;;;;;5093056;28;20204;-64
2021/04/08 01:52:16;;;;;;;5.67;3.30;;;5.40;99.90;;;;;;5093082;28;20211;-66
2021/04/08 01:54:46;;;;;;;6.47;3.10;;;5.40;99.90;;;;;;5092963;28;20204;-65
2021/04/08 01:57:14;;;;;;;4.53;3.10;;;5.40;99.90;;;;;;5093091;28;20211;-64
2021/04/08 01:59:43;;;;;;;4.00;3.13;;;5.40;99.90;;;;;;5092899;28;20238;-64
2021/04/08 02:02:11;;;;;;;3.80;2.93;;;5.40;99.90;;;;;;5092736;28;20255;-64
2021/04/08 02:04:39;;;;;;;4.63;3.20;;;5.40;99.90;;;;;;5092967;28;20211;-64
2021/04/08 02:07:08;;;;;;;7.30;3.63;;;5.40;99.90;;;;;;5092902;28;20204;-64
2021/04/08 02:09:37;;;;;;;6.30;3.53;;;5.40;99.90;;;;;;5093017;28;20215;-63
2021/04/08 02:12:06;;;;;;;5.43;3.70;;;5.40;99.90;;;;;;5092797;28;20216;-64
2021/04/08 02:14:34;;;;;;;7.13;3.87;;;5.40;99.90;;;;;;5092411;28;20204;-64
2021/04/08 02:17:01;;;;;;;5.47;3.03;;;5.40;99.90;;;;;;5092632;28;20204;-64
2021/04/08 02:19:31;;;;;;;8.00;3.30;;;5.40;99.90;;;;;;5092296;28;20252;-64
2021/04/08 02:22:00;;;;;;;4.10;3.00;;;5.40;99.90;;;;;;5092665;28;20232;-64
2021/04/08 02:24:27;;;;;;;6.60;3.37;;;5.50;99.90;;;;;;5092399;28;20261;-63
2021/04/08 02:26:55;;;;;;;4.57;3.00;;;5.50;99.90;;;;;;5092433;28;20200;-64
2021/04/08 02:29:22;;;;;;;7.33;3.23;;;5.50;99.90;;;;;;5092219;28;20222;-63
2021/04/08 02:31:50;;;;;;;4.37;3.20;;;5.50;99.90;;;;;;5092104;28;20239;-65
2021/04/08 02:34:16;;;;;;;4.47;3.50;;;5.50;99.90;;;;;;5092144;28;20612;-63
2021/04/08 02:36:42;;;;;;;3.63;2.90;;;5.50;99.90;;;;;;5092863;28;20403;-63
2021/04/08 02:39:10;;;;;;;7.27;3.30;;;5.50;99.90;;;;;;5092318;28;20203;-65
2021/04/08 02:41:39;;;;;;;4.70;3.97;;;5.50;99.90;;;;;;5092102;28;20714;-64
2021/04/08 02:44:05;;;;;;;3.67;3.20;;;5.50;99.90;;;;;;5091825;28;20734;-64
2021/04/08 02:46:32;;;;;;;6.37;3.10;;;5.50;99.90;;;;;;5092162;28;20240;-63
2021/04/08 02:48:58;;;;;;;6.67;3.43;;;5.50;99.90;;;;;;5091770;28;20667;-64
2021/04/08 02:51:30;;;;;;;4.63;3.27;;;5.40;99.90;;;;;;5092130;28;20228;-63
2021/04/08 02:53:58;;;;;;;6.70;2.97;;;5.40;99.90;;;;;;5092062;28;20208;-64
2021/04/08 02:56:29;;;;;;;8.50;3.60;;;5.40;99.90;;;;;;5092114;28;20231;-64
2021/04/08 02:59:02;;;;;;;6.07;3.37;;;5.40;99.90;;;;;;5092221;28;20274;-64
2021/04/08 03:01:31;;;;;;;7.67;3.33;;;5.40;99.90;;;;;;5106234;22;20224;-64
2021/04/08 03:03:59;;;;;;;6.23;2.87;;;5.40;99.90;;;;;;5091125;28;20204;-63
2021/04/08 03:06:26;;;;;;;5.50;3.30;;;5.40;99.90;;;;;;5091357;28;20671;-64
2021/04/08 03:08:56;;;;;;;5.43;3.40;;;5.40;99.90;;;;;;5091134;28;20208;-63
2021/04/08 03:11:25;;;;;;;7.27;3.07;;;5.40;99.90;;;;;;5091266;28;20216;-63
2021/04/08 03:13:53;;;;;;;9.73;3.40;;;5.40;99.90;;;;;;5091101;28;20675;-64
2021/04/08 03:16:23;;;;;;;4.93;3.50;;;5.40;99.90;;;;;;5091265;28;20294;-64
2021/04/08 03:18:52;;;;;;;4.10;3.00;;;5.40;99.90;;;;;;5091301;28;20215;-64
2021/04/08 03:21:22;;;;;;;5.20;3.43;;;5.40;99.90;;;;;;5090926;28;20596;-62
2021/04/08 03:23:48;;;;;;;5.03;3.27;;;5.40;99.90;;;;;;5091033;28;20592;-64
2021/04/08 03:26:16;;;;;;;7.43;3.60;;;5.50;99.90;;;;;;5091004;28;20211;-64
2021/04/08 03:28:44;;;;;;;5.50;3.20;;;5.50;99.90;;;;;;5091220;28;20208;-64
2021/04/08 03:31:13;;;;;;;5.53;3.67;;;5.50;99.90;;;;;;5090821;28;20718;-63
2021/04/08 03:33:42;;;;;;;6.63;3.23;;;5.50;99.90;;;;;;5090899;28;20208;-64
2021/04/08 03:36:09;;;;;;;6.93;3.47;;;5.50;99.90;;;;;;5090949;28;20671;-64
2021/04/08 03:38:36;;;;;;;5.63;3.30;;;5.50;99.90;;;;;;5090876;28;20254;-64
2021/04/08 03:41:03;;;;;;;6.97;3.33;;;5.60;99.90;;;;;;5090683;28;20232;-64
2021/04/08 03:43:29;;;;;;;5.87;4.13;;;5.50;99.90;;;;;;5090766;28;20208;-65
2021/04/08 03:45:59;;;;;;;5.80;4.10;;;5.50;99.90;;;;;;5090769;28;20208;-64
2021/04/08 03:48:27;;;;;;;6.60;3.60;;;5.50;99.80;;;;;;5090699;28;20220;-64
2021/04/08 03:50:55;;;;;;;4.63;3.97;;;5.50;99.30;;;;;;5090765;28;20220;-64
2021/04/08 03:53:22;;;;;;;7.43;3.63;;;5.40;99.20;;;;;;5090848;28;20200;-65
2021/04/08 03:55:48;;;;;;;4.53;3.43;;;5.40;98.90;;;;;;5090939;28;20200;-64
2021/04/08 03:58:16;;;;;;;6.70;3.57;;;5.30;98.80;;;;;;5094354;28;20216;-63
2021/04/08 04:00:43;;;;;;;6.60;4.00;;;5.30;98.70;;;;;;5094379;28;20691;-63
2021/04/08 04:03:10;;;;;;;5.70;3.87;;;5.30;98.20;;;;;;5095020;28;20215;-62
2021/04/08 04:05:37;;;;;;;7.00;3.50;;;5.30;98.00;;;;;;5094525;28;20216;-64
2021/04/08 04:08:04;;;;;;;8.10;3.80;;;5.00;97.90;;;;;;5094342;28;20231;-64
2021/04/08 04:10:35;;;;;;;5.37;3.77;;;5.00;97.80;;;;;;5094632;28;20224;-64
2021/04/08 04:13:02;;;;;;;6.10;3.90;;;5.00;97.70;;;;;;5094506;28;20204;-63
2021/04/08 04:15:29;;;;;;;5.97;3.80;;;4.90;97.80;;;;;;5094351;28;20209;-64
2021/04/08 04:17:55;;;;;;;6.97;4.80;;;4.90;97.70;;;;;;5094190;28;20208;-64
2021/04/08 04:20:22;;;;;;;5.57;3.30;;;4.80;97.20;;;;;;5094194;28;20231;-64
2021/04/08 04:22:49;;;;;;;4.97;3.53;;;4.80;97.00;;;;;;5094278;28;20668;-66
2021/04/08 04:25:16;;;;;;;8.33;3.90;;;4.80;97.00;;;;;;5094337;28;20289;-62
2021/04/08 04:27:42;;;;;;;5.73;3.90;;;4.70;97.10;;;;;;5094348;28;20725;-64
2021/04/08 04:30:10;;;;;;;5.73;3.53;;;4.70;97.10;;;;;;5094186;28;20739;-64
2021/04/08 04:32:36;;;;;;;6.67;3.70;;;4.70;97.10;;;;;;5094422;28;20671;-64
2021/04/08 04:35:03;;;;;;;8.30;4.23;;;4.70;96.90;;;;;;5094323;28;20219;-64
2021/04/08 04:37:30;;;;;;;6.10;3.60;;;4.70;97.00;;;;;;5094157;28;20563;-62
2021/04/08 04:39:56;;;;;;;7.37;4.90;;;4.80;97.00;;;;;;5093916;28;20211;-64
2021/04/08 04:42:23;;;;;;;7.83;3.80;;;4.80;96.90;;;;;;5093617;28;20594;-64
2021/04/08 04:44:49;;;;;;;6.10;4.03;;;4.80;96.90;;;;;;5093736;28;20211;-64
2021/04/08 04:47:15;;;;;;;7.73;4.90;;;4.80;96.80;;;;;;5094065;28;20209;-64
2021/04/08 04:49:41;;;;;;;4.43;3.50;;;4.90;96.70;;;;;;5093659;28;20208;-65
2021/04/08 04:52:08;;;;;;;5.43;3.40;;;4.90;96.80;;;;;;5094127;28;20211;-64
2021/04/08 04:54:34;;;;;;;5.07;3.80;;;5.00;96.70;;;;;;5093643;28;20200;-64
2021/04/08 04:57:00;;;;;;;6.30;3.87;;;5.00;96.40;;;;;;5093797;28;20208;-64
2021/04/08 04:59:27;;;;;;;6.67;3.47;;;5.00;96.40;;;;;;5093465;28;20588;-64
2021/04/08 05:01:53;;;;;;;6.67;4.20;;;5.00;96.30;;;;;;5093329;28;20236;-64
2021/04/08 05:04:19;;;;;;;12.37;7.10;;;5.10;96.40;;;;;;5093212;28;20219;-64
2021/04/08 05:06:46;;;;;;;8.13;5.10;;;5.10;96.40;;;;;;5093765;28;20242;-64
2021/04/08 05:09:12;;;;;;;6.73;4.60;;;5.10;96.40;;;;;;5093222;28;20208;-63
2021/04/08 05:11:38;;;;;;;7.93;3.93;;;5.10;96.20;;;;;;5093500;28;20411;-64
2021/04/08 05:14:04;;;;;;;6.83;4.17;;;5.10;96.10;;;;;;5093319;28;20204;-63
2021/04/08 05:16:31;;;;;;;8.00;5.80;;;5.30;96.00;;;;;;5093211;28;20272;-64
2021/04/08 05:18:57;;;;;;;11.50;5.93;;;5.40;95.70;;;;;;5092879;28;20201;-64
2021/04/08 05:21:24;;;;;;;7.83;5.20;;;5.50;95.60;;;;;;5093239;28;20357;-64
2021/04/08 05:23:50;;;;;;;6.73;4.20;;;5.70;95.40;;;;;;5093128;28;20208;-63
2021/04/08 05:26:16;;;;;;;6.83;4.10;;;5.80;95.20;;;;;;5093158;28;20200;-62
2021/04/08 05:28:42;;;;;;;6.87;4.03;;;6.00;95.30;;;;;;5093011;28;20204;-63
2021/04/08 05:31:09;;;;;;;10.30;5.50;;;6.10;95.00;;;;;;5093297;28;20227;-65
2021/04/08 05:33:36;;;;;;;7.90;3.97;;;6.20;94.80;;;;;;5092714;28;20580;-65
2021/04/08 05:36:02;;;;;;;6.67;3.80;;;6.30;94.40;;;;;;5093079;28;20215;-66
2021/04/08 05:38:29;;;;;;;7.70;3.93;;;6.40;94.10;;;;;;5092711;28;20200;-64
2021/04/08 05:40:55;;;;;;;6.33;4.07;;;6.50;93.60;;;;;;5093110;28;20735;-63
2021/04/08 05:43:21;;;;;;;6.87;3.70;;;6.60;93.40;;;;;;5093126;28;20706;-64
2021/04/08 05:45:47;;;;;;;9.00;3.57;;;6.80;93.50;;;;;;5092904;28;20212;-66
2021/04/08 05:48:14;;;;;;;9.40;3.63;;;6.80;93.30;;;;;;5092819;28;20212;-64
2021/04/08 05:50:41;;;;;;;6.67;3.87;;;7.20;93.30;;;;;;5092823;28;20254;-65
2021/04/08 05:53:08;;;;;;;6.13;3.60;;;7.50;92.80;;;;;;5092675;28;20296;-63
2021/04/08 05:55:34;;;;;;;5.83;3.60;;;7.80;92.00;;;;;;5092575;28;20208;-63
2021/04/08 05:58:01;;;;;;;6.37;3.30;;;8.20;91.20;;;;;;5092321;28;20204;-65
2021/04/08 06:00:27;;;;;;;8.10;3.60;;;8.50;90.20;;;;;;5092163;28;20733;-65
2021/04/08 06:02:54;;;;;;;7.13;3.27;;;8.60;89.70;;;;;;5092851;28;20664;-64
2021/04/08 06:05:21;;;;;;;6.57;3.40;;;8.80;88.60;;;;;;5092539;28;20211;-66
2021/04/08 06:07:48;;;;;;;6.70;3.80;;;9.40;86.60;;;;;;5092801;28;20210;-65
2021/04/08 06:10:15;;;;;;;6.17;3.40;;;9.80;83.70;;;;;;5092624;28;20228;-66
2021/04/08 06:12:41;;;;;;;7.20;3.67;;;10.20;80.90;;;;;;5092546;28;20211;-67
2021/04/08 06:15:09;;;;;;;9.67;3.70;;;10.10;79.00;;;;;;5092198;28;20262;-64
2021/04/08 06:17:36;;;;;;;6.20;3.63;;;10.00;78.60;;;;;;5092481;28;20703;-64
2021/04/08 06:20:03;;;;;;;10.73;4.60;;;9.70;80.70;;;;;;5091863;28;20250;-65
2021/04/08 06:22:29;;;;;;;11.97;4.10;;;9.50;82.70;;;;;;5092332;28;20227;-64
2021/04/08 06:24:56;;;;;;;6.20;4.00;;;9.70;82.20;;;;;;5092087;28;20205;-64
2021/04/08 06:27:22;;;;;;;5.43;3.10;;;10.10;80.10;;;;;;5092078;28;20207;-64
2021/04/08 06:29:48;;;;;;;5.83;3.70;;;10.80;78.50;;;;;;5091983;28;20702;-64
2021/04/08 06:32:15;;;;;;;7.93;3.90;;;11.50;76.40;;;;;;5092237;28;20211;-64
2021/04/08 06:34:41;;;;;;;11.60;5.30;;;12.00;72.70;;;;;;5092218;28;20207;-65
2021/04/08 06:37:07;;;;;;;5.83;3.53;;;12.30;73.40;;;;;;5092338;28;20208;-64
2021/04/08 06:39:35;;;;;;;6.53;3.90;;;12.60;70.60;;;;;;5091658;28;20389;-63
2021/04/08 06:42:02;;;;;;;5.93;3.60;;;12.70;70.60;;;;;;5091446;28;20235;-63
2021/04/08 06:44:30;;;;;;;9.47;4.13;;;12.80;70.00;;;;;;5090704;28;20685;-64
2021/04/08 06:46:58;;;;;;;7.77;4.30;;;12.80;70.50;;;;;;5091743;28;20240;-64
2021/04/08 06:49:32;;;;;;;9.63;3.97;;;13.00;70.40;;;;;;5092060;28;20294;-64
2021/04/08 06:51:59;;;;;;;8.03;4.67;;;13.50;69.50;;;;;;5091937;28;20224;-64
2021/04/08 06:54:26;;;;;;;7.20;3.30;;;14.20;67.70;;;;;;5091603;28;20200;-65
2021/04/08 06:56:53;;;;;;;7.73;4.80;;;15.20;65.50;;;;;;5091746;28;20208;-64
2021/04/08 06:59:21;;;;;;;6.20;3.60;;;16.00;60.50;;;;;;5091579;28;20208;-64
2021/04/08 07:01:48;;;;;;;6.30;2.70;;;16.50;60.00;;;;;;5091248;28;20642;-63
2021/04/08 07:04:15;;;;;;;6.77;3.00;;;17.10;57.60;;;;;;5091393;28;20212;-67
2021/04/08 07:06:41;;;;;;;5.47;3.47;;;17.80;55.40;;;;;;5091195;28;20674;-59
2021/04/08 07:09:10;;;;;;;7.70;3.33;;;18.40;53.50;;;;;;5091033;28;20254;-64
2021/04/08 07:11:39;;;;;;;5.77;3.27;;;18.90;51.60;;;;;;5091210;28;20224;-64
2021/04/08 07:14:07;;;;;;;8.88;3.33;;;19.30;49.20;;;;;;5091074;28;20236;-63
2021/04/08 07:16:35;;;;;;;6.70;3.60;;;19.70;48.90;;;;;;5091199;28;20208;-59
2021/04/08 07:19:02;;;;;;;8.57;3.75;;;19.70;46.50;;;;;;5090922;28;20212;-62
2021/04/08 07:21:29;;;;;;;5.95;3.22;;;19.60;46.60;;;;;;5090846;28;20224;-59
2021/04/08 07:24:13;;;;;;;5.57;3.33;;;19.90;45.80;;;;;;5090606;28;20231;-60
2021/04/08 07:27:00;;;;;;;6.53;3.45;;;20.00;43.90;;;;;;5091244;28;20208;-59
2021/04/08 07:29:45;;;;;;;8.07;3.42;;;19.70;42.10;;;;;;5090653;28;20573;-59
2021/04/08 07:32:14;;;;;;;5.33;3.50;;;19.20;43.30;;;;;;5092252;28;20575;-60
2021/04/08 07:34:42;;;;;;;6.83;3.90;;;18.90;44.60;;;;;;5095671;28;20283;-61
2021/04/08 07:37:09;;;;;;;6.07;3.80;;;18.60;44.30;;;;;;5095163;28;20208;-60
2021/04/08 07:39:37;;;;;;;8.00;3.73;;;18.50;44.10;;;;;;5094789;28;20582;-59
2021/04/08 07:42:06;;;;;;;6.90;4.03;;;18.40;44.20;;;;;;5094811;28;20223;-60
2021/04/08 07:44:43;;;;;;;5.80;3.53;;;18.90;43.20;;;;;;5094724;28;20235;-60
2021/04/08 07:47:18;;;;;;;8.70;3.33;;;19.30;43.50;;;;;;5094997;28;20210;-60
2021/04/08 07:49:45;;;;;;;6.40;3.80;;;20.00;41.50;;;;;;5094686;28;20679;-60
2021/04/08 07:52:23;;;;;;;6.53;3.65;;;20.30;39.70;;;;;;5094638;28;20603;-58
2021/04/08 07:55:08;;;;;;;6.97;3.22;;;20.80;39.70;;;;;;5094454;28;20209;-61
2021/04/08 07:57:55;;;;;;;5.97;3.30;;;21.30;38.80;;;;;;5094760;28;20588;-61
2021/04/08 08:00:23;;;;;;;6.70;2.90;;;21.50;36.30;;;;;;5094959;28;20231;-61
2021/04/08 08:02:51;;;;;;;5.80;3.10;;;21.40;35.90;;;;;;5094998;28;20201;-60
2021/04/08 08:05:24;;;;;;;5.95;3.10;;;20.80;36.60;;;;;;5094561;28;20692;-60
2021/04/08 08:07:51;;;;;;;4.33;2.93;;;19.90;36.90;;;;;;5094505;28;20676;-61
2021/04/08 08:10:23;;;;;;;7.07;3.23;;;18.10;37.80;;;;;;5094584;28;20334;-60
2021/04/08 08:12:50;;;;;;;6.87;3.13;;;16.20;40.00;;;;;;5094583;28;20216;-61
2021/04/08 08:15:20;;;;;;;9.57;3.70;;;15.10;43.20;;;;;;5094669;28;20204;-61
2021/04/08 08:17:47;;;;;;;4.43;3.17;;;14.70;43.20;;;;;;5094135;28;20204;-60
2021/04/08 08:20:15;;;;;;;6.80;3.33;;;14.60;43.30;;;;;;5094192;28;20600;-61
2021/04/08 08:22:43;;;;;;;5.40;3.13;;;14.60;42.90;;;;;;5094357;28;20239;-61
2021/04/08 08:25:11;;;;;;;5.17;3.37;;;14.40;42.60;;;;;;5094171;28;20208;-64
2021/04/08 08:27:47;;;;;;;5.47;2.80;;;14.20;43.10;;;;;;5094393;28;20208;-64
2021/04/08 08:30:20;;;;;;;6.13;3.10;;;14.00;43.00;;;;;;5094127;28;20593;-64
2021/04/08 08:33:12;;;;;;;7.60;3.27;;;13.60;43.20;;;;;;5094160;28;20196;-62
2021/04/08 08:35:39;;;;;;;8.50;3.27;;;13.30;44.60;;;;;;5093975;28;20253;-64
2021/04/08 08:38:09;;;;;;;4.87;3.27;;;13.00;44.90;;;;;;5093894;28;20204;-64
2021/04/08 08:40:36;;;;;;;5.03;3.40;;;12.90;43.90;;;;;;5093749;28;20220;-65
2021/04/08 08:43:04;;;;;;;7.03;3.57;;;12.80;44.60;;;;;;5092968;28;20281;-63
2021/04/08 08:45:32;;;;;;;5.47;3.50;;;12.70;44.40;;;;;;5093643;28;20207;-62
2021/04/08 08:48:01;;;;;;;6.37;3.70;;;12.60;46.60;;;;;;5093762;28;20493;-64
2021/04/08 08:50:27;;;;;;;5.73;3.53;;;12.30;47.60;;;;;;5093692;28;20234;-62
2021/04/08 08:52:56;;;;;;;6.83;3.50;;;12.00;48.10;;;;;;5093665;28;20227;-63
2021/04/08 08:55:23;;;;;;;9.63;3.70;;;11.70;48.90;;;;;;5093702;28;20211;-65
2021/04/08 08:57:52;;;;;;;6.80;3.27;;;11.80;48.70;;;;;;5093709;28;20574;-64
2021/04/08 09:00:19;;;;;;;5.60;3.53;;;11.70;49.00;;;;;;5118257;22;20239;-66
2021/04/08 09:02:46;;;;;;;6.70;3.90;;;11.70;48.70;;;;;;5074029;28;20312;-65
2021/04/08 09:05:16;;;;;;;7.17;3.90;;;11.50;49.10;;;;;;5073640;28;20587;-66
2021/04/08 09:07:45;;;;;;;6.67;3.30;;;11.40;49.40;;;;;;5073493;28;20595;-68
2021/04/08 09:10:15;;;;;;;7.73;3.47;;;11.10;48.70;;;;;;5073042;28;20311;-66
2021/04/08 09:12:42;;;;;;;7.87;3.60;;;10.70;49.70;;;;;;5075010;28;20291;-66
2021/04/08 09:15:09;;;;;;;6.40;3.43;;;10.40;50.40;;;;;;5076257;28;20209;-66
2021/04/08 09:17:41;;;;;;;7.27;3.63;;;10.30;50.70;;;;;;5075772;28;20246;-66
2021/04/08 09:20:09;;;;;;;6.70;3.67;;;10.50;51.30;;;;;;5074744;28;20203;-66
2021/04/08 09:22:47;;;;;;;7.33;3.50;;;10.80;51.20;;;;;;5075097;28;20225;-65
2021/04/08 09:25:16;;;;;;;6.13;3.60;;;11.00;49.80;;;;;;5074967;28;20592;-66
2021/04/08 09:27:50;;;;;;;8.80;3.90;;;11.00;49.50;;;;;;5074694;28;20715;-66
2021/04/08 09:30:32;;;;;;;4.43;3.37;;;11.20;50.20;;;;;;5074716;28;20205;-66
2021/04/08 09:32:59;;;;;;;5.73;3.13;;;11.30;48.40;;;;;;5074307;28;20204;-66
2021/04/08 09:35:29;;;;;;;7.60;3.73;;;11.40;48.30;;;;;;5074160;28;20204;-65
2021/04/08 09:38:21;;;;;;;7.10;3.90;;;11.60;48.80;;;;;;5074479;28;20708;-65
2021/04/08 09:41:09;;;;;;;8.57;3.90;;;12.00;47.30;;;;;;5075804;28;20336;-64
2021/04/08 09:43:37;;;;;;;7.87;4.27;;;12.40;47.20;;;;;;5070122;28;20579;-65
2021/04/08 09:46:10;;;;;;;7.53;3.90;;;12.70;46.80;;;;;;5075188;28;20232;-66
2021/04/08 09:48:53;;;;;;;4.90;3.53;;;12.90;46.80;;;;;;5074364;28;20665;-66
2021/04/08 09:51:34;;;;;;;8.33;3.80;;;12.80;46.40;;;;;;5074476;28;20781;-66
2021/04/08 09:54:09;;;;;;;5.87;3.33;;;12.60;46.60;;;;;;5073099;28;20286;-66
2021/04/08 09:56:49;;;;;;;5.70;3.57;;;12.30;47.30;;;;;;5073743;28;20208;-66
2021/04/08 09:59:17;;;;;;;5.83;3.93;;;12.10;47.60;;;;;;5072724;28;20490;-66
2021/04/08 10:01:44;;;;;;;5.83;3.50;;;11.90;49.40;;;;;;5089961;28;20315;-66
2021/04/08 10:04:16;;;;;;;6.30;3.80;;;11.70;50.70;;;;;;5093464;28;20200;-64
2021/04/08 10:06:43;;;;;;;7.07;3.97;;;11.40;51.10;;;;;;5092210;28;20632;-64
2021/04/08 10:09:10;;;;;;;9.17;3.97;;;11.20;51.70;;;;;;5092253;28;20206;-69
2021/04/08 10:11:37;;;;;;;8.67;4.07;;;11.10;51.00;;;;;;5094652;28;20276;-66
2021/04/08 10:14:17;;;;;;;12.60;4.20;;;11.20;50.60;;;;;;5096075;28;20663;-68
2021/04/08 10:16:43;;;;;;;6.97;4.00;;;11.50;50.70;;;;;;5092030;28;20210;-68
2021/04/08 10:19:09;;;;;;;9.50;5.23;;;11.60;50.70;;;;;;5092446;28;20298;-68
2021/04/08 10:21:36;;;;;;;8.20;5.10;;;11.80;51.00;;;;;;5092982;28;20694;-69
2021/04/08 10:24:12;;;;;;;8.90;4.30;;;12.00;50.40;;;;;;5094940;28;20202;-70
2021/04/08 10:26:39;;;;;;;7.40;4.53;;;12.40;49.80;;;;;;5084339;28;20208;-68
2021/04/08 10:29:06;;;;;;;8.53;4.30;;;12.90;49.40;;;;;;5071921;28;20211;-68
2021/04/08 10:31:35;;;;;;;13.23;4.00;;;13.30;48.20;;;;;;5074047;28;20371;-67
2021/04/08 10:34:06;;;;;;;6.63;3.73;;;13.30;47.20;;;;;;5073938;28;20216;-65
2021/04/08 10:36:35;;;;;;;5.03;3.63;;;13.30;47.20;;;;;;5074432;28;20207;-66
2021/04/08 10:39:10;;;;;;;5.80;3.70;;;13.20;47.10;;;;;;5072167;28;20259;-66
2021/04/08 10:41:37;;;;;;;7.70;3.80;;;13.00;47.40;;;;;;5071593;28;20228;-65
2021/04/08 10:44:21;;;;;;;7.17;3.70;;;13.00;47.00;;;;;;5071661;28;20208;-66
2021/04/08 10:46:48;;;;;;;6.43;3.90;;;13.20;47.50;;;;;;5072011;28;20338;-66
2021/04/08 10:49:24;;;;;;;5.47;3.80;;;13.30;46.60;;;;;;5072074;28;20596;-66
2021/04/08 10:51:50;;;;;;;7.90;3.70;;;13.40;47.30;;;;;;5071412;28;20726;-66
2021/04/08 10:54:17;;;;;;;5.83;3.57;;;13.70;47.20;;;;;;5071526;28;20615;-66
2021/04/08 10:56:48;;;;;;;5.60;3.60;;;14.10;46.60;;;;;;5071760;28;20582;-66
2021/04/08 10:59:19;;;;;;;8.43;4.43;;;14.40;46.60;;;;;;5071403;28;20232;-66
2021/04/08 11:01:45;;;;;;;7.27;3.73;;;14.50;46.20;;;;;;5071179;28;20236;-66
2021/04/08 11:04:12;;;;;;;7.67;4.27;;;14.70;46.30;;;;;;5071510;28;20215;-66
2021/04/08 11:06:39;;;;;;;4.93;3.97;;;14.90;45.40;;;;;;5071614;28;20204;-65
2021/04/08 11:09:05;;;;;;;7.07;4.03;;;14.80;45.20;;;;;;5071855;28;20231;-65
2021/04/08 11:11:31;;;;;;;5.27;3.60;;;14.60;45.80;;;;;;5071672;28;20715;-66
2021/04/08 11:13:58;;;;;;;6.73;3.87;;;14.50;46.10;;;;;;5071114;28;20220;-65
2021/04/08 11:16:28;;;;;;;5.53;3.57;;;14.50;46.00;;;;;;5071603;28;20251;-65
2021/04/08 11:18:57;;;;;;;5.13;3.70;;;14.90;46.10;;;;;;5071207;28;20233;-65
2021/04/08 11:21:25;;;;;;;8.67;4.27;;;15.20;45.10;;;;;;5071530;28;20703;-65
2021/04/08 11:23:52;;;;;;;7.23;4.30;;;15.20;45.20;;;;;;5072463;28;20518;-65
2021/04/08 11:26:18;;;;;;;8.40;4.27;;;15.10;45.70;;;;;;5072399;28;20220;-61
2021/04/08 11:28:45;;;;;;;6.37;4.17;;;15.10;45.60;;;;;;5072689;28;20205;-61
2021/04/08 11:31:13;;;;;;;7.40;4.33;;;15.10;46.60;;;;;;5072606;28;20694;-61
2021/04/08 11:33:39;;;;;;;6.77;4.10;;;15.10;45.60;;;;;;5071890;28;20579;-61
2021/04/08 11:36:16;;;;;;;5.70;3.83;;;15.10;45.90;;;;;;5072188;28;20208;-61
2021/04/08 11:38:43;;;;;;;6.97;4.00;;;15.20;45.90;;;;;;5071140;28;20216;-61
2021/04/08 11:41:10;;;;;;;5.13;3.67;;;15.30;45.60;;;;;;5071263;28;20571;-61
2021/04/08 11:43:45;;;;;;;6.87;4.03;;;15.20;45.30;;;;;;5071693;28;20205;-61
2021/04/08 11:46:25;;;;;;;17.70;11.57;;;14.80;46.60;;;;;;5071248;28;20362;-62
2021/04/08 11:48:51;;;;;;;6.83;4.10;;;14.90;45.40;;;;;;5071657;28;20624;-61
2021/04/08 11:51:21;;;;;;;9.30;4.07;;;15.20;45.80;;;;;;5072165;28;20221;-67
2021/04/08 11:53:48;;;;;;;7.23;4.63;;;15.50;45.00;;;;;;5070269;28;20200;-66
2021/04/08 11:56:26;;;;;;;10.57;6.87;;;15.60;44.60;;;;;;5071322;28;20254;-68
2021/04/08 11:59:04;;;;;;;6.80;4.33;;;15.70;44.50;;;;;;5070750;28;20267;-66
2021/04/08 12:01:34;;;;;;;8.37;4.37;;;15.70;44.50;;;;;;5070398;28;20228;-66
2021/04/08 12:04:10;;;;;;;6.43;4.20;;;15.80;44.10;;;;;;5069426;28;20597;-66
2021/04/08 12:06:41;;;;;;;7.27;4.17;;;15.70;44.00;;;;;;5072268;28;20204;-67
2021/04/08 12:09:08;;;;;;;6.43;3.80;;;15.40;44.80;;;;;;5070668;28;20255;-68
2021/04/08 12:11:50;;;;;;;7.37;4.50;;;15.10;44.70;;;;;;5071057;28;20308;-65
2021/04/08 12:14:16;;;;;;;6.07;4.43;;;14.80;45.20;;;;;;5070360;28;20201;-65
2021/04/08 12:16:43;;;;;;;6.77;4.00;;;14.60;44.80;;;;;;5072251;28;20217;-63
2021/04/08 12:19:09;;;;;;;6.47;4.20;;;14.30;45.10;;;;;;5075138;28;20226;-63
2021/04/08 12:21:35;;;;;;;8.03;4.40;;;14.10;45.80;;;;;;5075180;28;20232;-64
2021/04/08 12:24:09;;;;;;;7.73;4.37;;;14.00;45.70;;;;;;5074675;28;20213;-66
2021/04/08 12:26:40;;;;;;;11.77;5.60;;;13.90;46.80;;;;;;5076476;28;20263;-68
2021/04/08 12:29:06;;;;;;;6.70;4.43;;;13.60;45.70;;;;;;5075548;28;20208;-68
2021/04/08 12:31:33;;;;;;;8.97;4.63;;;13.40;46.60;;;;;;5075030;28;20236;-68
2021/04/08 12:33:59;;;;;;;7.50;4.23;;;13.30;47.00;;;;;;5075329;28;20205;-70
2021/04/08 12:36:26;;;;;;;6.37;4.20;;;13.10;47.00;;;;;;5074141;28;20209;-69
2021/04/08 12:38:52;;;;;;;6.90;4.37;;;13.20;47.20;;;;;;5074249;28;20210;-69
2021/04/08 12:41:19;;;;;;;8.27;4.27;;;13.20;47.90;;;;;;5074074;28;20645;-66
2021/04/08 12:43:45;;;;;;;6.77;4.40;;;13.00;47.50;;;;;;5074021;28;20211;-64
2021/04/08 12:46:12;;;;;;;8.03;4.13;;;13.00;47.80;;;;;;5074256;28;20212;-65
2021/04/08 12:48:38;;;;;;;5.53;4.30;;;13.10;48.10;;;;;;5073489;28;20772;-65
2021/04/08 12:51:05;;;;;;;7.63;4.27;;;13.10;47.40;;;;;;5073721;28;20251;-65
2021/04/08 12:53:31;;;;;;;6.57;4.00;;;13.10;47.20;;;;;;5073570;28;20213;-65
2021/04/08 12:55:58;;;;;;;7.40;4.70;;;12.90;47.90;;;;;;5073417;28;20274;-65
2021/04/08 12:58:25;;;;;;;7.43;4.73;;;12.80;48.40;;;;;;5073444;28;20216;-65